sensor_id;sensor_type;location;lat;lon;timestamp;temperature;humidity
2721;DHT22;1368;49.484;11.112;2023-06-22T00:01:58;20.10;99.90
2721;DHT22;1368;49.484;11.112;2023-06-22T00:04:24;20.20;99.90
2721;DHT22;1368;49.484;11.112;2023-06-22T00:06:49;20.10;99.90
2721;DHT22;1368;49.484;11.112;2023-06-22T00:09:15;19.80;99.90
2721;DHT22;1368;49.484;11.112;2023-06-22T00:11:40;19.60;99.90
2721;DHT22;1368;49.484;11.112;2023-06-22T00:14:06;19.50;99.90
2721;DHT22;1368;49.484;11.112;2023-06-22T00:16:32;19.60;99.90
2721;DHT22;1368;49.484;11.112;2023-06-22T00:18:58;19.40;99.90
2721;DHT22;1368;49.484;11.112;2023-06-22T00:21:26;19.40;99.90
2721;DHT22;1368;49.484;11.112;2023-06-22T00:23:52;19.20;99.90
2721;DHT22;1368;49.484;11.112;2023-06-22T00:26:17;19.10;99.90
2721;DHT22;1368;49.484;11.112;2023-06-22T00:28:43;19.20;99.90
2721;DHT22;1368;49.484;11.112;2023-06-22T00:31:08;19.30;99.90
2721;DHT22;1368;49.484;11.112;2023-06-22T00:33:34;19.20;99.90
2721;DHT22;1368;49.484;11.112;2023-06-22T00:36:00;19.20;99.90
2721;DHT22;1368;49.484;11.112;2023-06-22T00:38:25;19.30;99.90
2721;DHT22;1368;49.484;11.112;2023-06-22T00:40:51;19.60;99.90
2721;DHT22;1368;49.484;11.112;2023-06-22T00:43:16;19.90;99.90
2721;DHT22;1368;49.484;11.112;2023-06-22T00:45:42;20.10;99.90
2721;DHT22;1368;49.484;11.112;2023-06-22T00:48:08;20.20;99.90
2721;DHT22;1368;49.484;11.112;2023-06-22T00:50:34;20.30;99.90
2721;DHT22;1368;49.484;11.112;2023-06-22T00:53:03;20.40;99.90
2721;DHT22;1368;49.484;11.112;2023-06-22T00:55:34;20.40;99.90
2721;DHT22;1368;49.484;11.112;2023-06-22T00:58:03;20.50;99.90
2721;DHT22;1368;49.484;11.112;2023-06-22T01:00:31;20.50;99.90
2721;DHT22;1368;49.484;11.112;2023-06-22T01:02:58;21.00;99.90
2721;DHT22;1368;49.484;11.112;2023-06-22T01:05:24;20.60;99.90
2721;DHT22;1368;49.484;11.112;2023-06-22T01:13:29;20.70;99.90
2721;DHT22;1368;49.484;11.112;2023-06-22T01:16:02;20.70;99.90
2721;DHT22;1368;49.484;11.112;2023-06-22T01:18:30;20.70;99.90
2721;DHT22;1368;49.484;11.112;2023-06-22T01:20:57;20.60;99.90
2721;DHT22;1368;49.484;11.112;2023-06-22T01:26:16;20.20;99.90
2721;DHT22;1368;49.484;11.112;2023-06-22T01:28:52;19.90;99.90
2721;DHT22;1368;49.484;11.112;2023-06-22T01:31:21;19.80;99.90
2721;DHT22;1368;49.484;11.112;2023-06-22T01:33:51;19.50;99.90
2721;DHT22;1368;49.484;11.112;2023-06-22T01:36:19;19.20;99.90
2721;DHT22;1368;49.484;11.112;2023-06-22T01:38:46;19.10;99.90
2721;DHT22;1368;49.484;11.112;2023-06-22T01:41:12;18.90;99.90
2721;DHT22;1368;49.484;11.112;2023-06-22T01:43:39;18.70;99.90
2721;DHT22;1368;49.484;11.112;2023-06-22T01:46:04;18.80;99.90
2721;DHT22;1368;49.484;11.112;2023-06-22T01:48:31;18.80;99.90
2721;DHT22;1368;49.484;11.112;2023-06-22T01:50:57;19.00;99.90
2721;DHT22;1368;49.484;11.112;2023-06-22T01:53:23;19.10;99.90
2721;DHT22;1368;49.484;11.112;2023-06-22T01:55:49;19.20;99.90
2721;DHT22;1368;49.484;11.112;2023-06-22T01:58:15;18.90;99.90
2721;DHT22;1368;49.484;11.112;2023-06-22T02:00:59;18.80;99.90
2721;DHT22;1368;49.484;11.112;2023-06-22T02:03:34;18.70;99.90
2721;DHT22;1368;49.484;11.112;2023-06-22T02:06:05;18.70;99.90
2721;DHT22;1368;49.484;11.112;2023-06-22T02:08:46;18.70;99.90
2721;DHT22;1368;49.484;11.112;2023-06-22T02:11:13;18.90;99.90
2721;DHT22;1368;49.484;11.112;2023-06-22T02:13:40;19.20;99.90
2721;DHT22;1368;49.484;11.112;2023-06-22T02:16:10;19.10;99.90
2721;DHT22;1368;49.484;11.112;2023-06-22T02:18:36;19.10;99.90
2721;DHT22;1368;49.484;11.112;2023-06-22T02:21:02;19.10;99.90
2721;DHT22;1368;49.484;11.112;2023-06-22T02:23:28;19.10;99.90
2721;DHT22;1368;49.484;11.112;2023-06-22T02:25:54;19.20;99.90
2721;DHT22;1368;49.484;11.112;2023-06-22T02:28:19;19.40;99.90
2721;DHT22;1368;49.484;11.112;2023-06-22T02:30:45;19.60;99.90
2721;DHT22;1368;49.484;11.112;2023-06-22T02:33:10;19.80;99.90
2721;DHT22;1368;49.484;11.112;2023-06-22T02:35:36;19.80;99.90
2721;DHT22;1368;49.484;11.112;2023-06-22T02:38:03;19.80;99.90
2721;DHT22;1368;49.484;11.112;2023-06-22T02:40:29;19.80;99.90
2721;DHT22;1368;49.484;11.112;2023-06-22T02:42:55;20.10;99.90
2721;DHT22;1368;49.484;11.112;2023-06-22T02:45:21;19.80;99.90
2721;DHT22;1368;49.484;11.112;2023-06-22T02:47:46;19.80;99.90
2721;DHT22;1368;49.484;11.112;2023-06-22T02:50:13;19.80;99.90
2721;DHT22;1368;49.484;11.112;2023-06-22T02:52:39;20.20;99.90
2721;DHT22;1368;49.484;11.112;2023-06-22T02:55:05;19.80;99.90
2721;DHT22;1368;49.484;11.112;2023-06-22T02:57:32;19.90;99.90
2721;DHT22;1368;49.484;11.112;2023-06-22T02:59:58;20.00;99.90
2721;DHT22;1368;49.484;11.112;2023-06-22T03:02:24;20.00;99.90
2721;DHT22;1368;49.484;11.112;2023-06-22T03:04:51;19.60;99.90
2721;DHT22;1368;49.484;11.112;2023-06-22T03:07:22;19.70;99.90
2721;DHT22;1368;49.484;11.112;2023-06-22T03:09:47;19.30;99.90
2721;DHT22;1368;49.484;11.112;2023-06-22T03:12:13;19.30;99.90
2721;DHT22;1368;49.484;11.112;2023-06-22T03:14:38;19.50;99.90
2721;DHT22;1368;49.484;11.112;2023-06-22T03:17:04;19.60;99.90
2721;DHT22;1368;49.484;11.112;2023-06-22T03:19:30;19.40;99.90
2721;DHT22;1368;49.484;11.112;2023-06-22T03:21:58;19.50;99.90
2721;DHT22;1368;49.484;11.112;2023-06-22T03:24:24;19.40;99.90
2721;DHT22;1368;49.484;11.112;2023-06-22T03:26:49;19.50;99.90
2721;DHT22;1368;49.484;11.112;2023-06-22T03:29:15;19.60;99.90
2721;DHT22;1368;49.484;11.112;2023-06-22T03:31:41;19.60;99.90
2721;DHT22;1368;49.484;11.112;2023-06-22T03:34:06;19.80;99.90
2721;DHT22;1368;49.484;11.112;2023-06-22T03:36:32;20.00;99.90
2721;DHT22;1368;49.484;11.112;2023-06-22T03:38:57;20.10;99.90
2721;DHT22;1368;49.484;11.112;2023-06-22T03:41:23;19.90;99.90
2721;DHT22;1368;49.484;11.112;2023-06-22T03:43:48;20.50;99.90
2721;DHT22;1368;49.484;11.112;2023-06-22T03:46:14;20.00;99.90
2721;DHT22;1368;49.484;11.112;2023-06-22T03:48:39;20.10;99.90
2721;DHT22;1368;49.484;11.112;2023-06-22T03:51:05;20.20;99.90
2721;DHT22;1368;49.484;11.112;2023-06-22T03:53:31;20.30;99.90
2721;DHT22;1368;49.484;11.112;2023-06-22T03:55:56;20.70;99.90
2721;DHT22;1368;49.484;11.112;2023-06-22T03:58:22;19.90;99.90
2721;DHT22;1368;49.484;11.112;2023-06-22T04:00:49;19.80;99.90
2721;DHT22;1368;49.484;11.112;2023-06-22T04:03:15;20.10;99.90
2721;DHT22;1368;49.484;11.112;2023-06-22T04:05:41;20.40;99.90
2721;DHT22;1368;49.484;11.112;2023-06-22T04:08:07;20.40;99.90
2721;DHT22;1368;49.484;11.112;2023-06-22T04:10:33;20.80;99.90
2721;DHT22;1368;49.484;11.112;2023-06-22T04:13:00;20.90;99.90
2721;DHT22;1368;49.484;11.112;2023-06-22T04:15:25;21.10;99.90
2721;DHT22;1368;49.484;11.112;2023-06-22T04:17:51;21.40;99.90
2721;DHT22;1368;49.484;11.112;2023-06-22T04:20:16;21.80;99.90
2721;DHT22;1368;49.484;11.112;2023-06-22T04:22:42;21.50;99.90
2721;DHT22;1368;49.484;11.112;2023-06-22T04:25:07;21.40;99.90
2721;DHT22;1368;49.484;11.112;2023-06-22T04:27:33;21.80;99.90
2721;DHT22;1368;49.484;11.112;2023-06-22T04:30:07;22.20;99.90
2721;DHT22;1368;49.484;11.112;2023-06-22T04:32:34;21.90;99.90
2721;DHT22;1368;49.484;11.112;2023-06-22T04:35:05;21.70;99.90
2721;DHT22;1368;49.484;11.112;2023-06-22T04:37:31;21.80;99.90
2721;DHT22;1368;49.484;11.112;2023-06-22T04:39:57;22.30;99.90
2721;DHT22;1368;49.484;11.112;2023-06-22T04:42:28;22.60;99.90
2721;DHT22;1368;49.484;11.112;2023-06-22T04:44:53;22.70;99.90
2721;DHT22;1368;49.484;11.112;2023-06-22T04:47:19;22.50;99.90
2721;DHT22;1368;49.484;11.112;2023-06-22T04:49:45;22.50;99.90
2721;DHT22;1368;49.484;11.112;2023-06-22T04:52:12;22.70;99.90
2721;DHT22;1368;49.484;11.112;2023-06-22T04:54:40;22.90;99.90
2721;DHT22;1368;49.484;11.112;2023-06-22T04:57:13;23.40;99.90
2721;DHT22;1368;49.484;11.112;2023-06-22T04:59:40;23.20;99.90
2721;DHT22;1368;49.484;11.112;2023-06-22T05:02:07;23.10;99.90
2721;DHT22;1368;49.484;11.112;2023-06-22T05:04:33;22.70;99.90
2721;DHT22;1368;49.484;11.112;2023-06-22T05:07:01;23.10;99.90
2721;DHT22;1368;49.484;11.112;2023-06-22T05:09:27;23.60;99.90
2721;DHT22;1368;49.484;11.112;2023-06-22T05:11:53;23.60;99.90
2721;DHT22;1368;49.484;11.112;2023-06-22T05:14:19;23.70;99.90
2721;DHT22;1368;49.484;11.112;2023-06-22T05:16:45;23.50;99.90
2721;DHT22;1368;49.484;11.112;2023-06-22T05:19:11;23.50;99.90
2721;DHT22;1368;49.484;11.112;2023-06-22T05:21:37;23.60;99.90
2721;DHT22;1368;49.484;11.112;2023-06-22T05:24:03;24.20;99.90
2721;DHT22;1368;49.484;11.112;2023-06-22T05:26:30;25.00;99.90
2721;DHT22;1368;49.484;11.112;2023-06-22T05:28:56;25.60;99.90
2721;DHT22;1368;49.484;11.112;2023-06-22T05:31:22;26.10;99.90
2721;DHT22;1368;49.484;11.112;2023-06-22T05:33:50;26.50;99.90
2721;DHT22;1368;49.484;11.112;2023-06-22T05:36:16;26.20;99.90
2721;DHT22;1368;49.484;11.112;2023-06-22T05:38:42;26.50;99.90
2721;DHT22;1368;49.484;11.112;2023-06-22T05:41:08;27.40;99.90
2721;DHT22;1368;49.484;11.112;2023-06-22T05:43:33;27.30;99.90
2721;DHT22;1368;49.484;11.112;2023-06-22T05:46:03;27.50;99.90
2721;DHT22;1368;49.484;11.112;2023-06-22T05:48:29;27.70;99.90
2721;DHT22;1368;49.484;11.112;2023-06-22T05:50:54;27.90;99.90
2721;DHT22;1368;49.484;11.112;2023-06-22T05:53:20;28.20;99.90
2721;DHT22;1368;49.484;11.112;2023-06-22T05:55:46;28.70;99.90
2721;DHT22;1368;49.484;11.112;2023-06-22T05:58:12;28.80;99.90
2721;DHT22;1368;49.484;11.112;2023-06-22T06:00:39;29.00;99.90
2721;DHT22;1368;49.484;11.112;2023-06-22T06:03:05;28.40;99.90
2721;DHT22;1368;49.484;11.112;2023-06-22T06:05:32;28.30;99.90
2721;DHT22;1368;49.484;11.112;2023-06-22T06:08:02;28.30;99.90
2721;DHT22;1368;49.484;11.112;2023-06-22T06:10:28;28.30;99.90
2721;DHT22;1368;49.484;11.112;2023-06-22T06:12:55;28.50;99.90
2721;DHT22;1368;49.484;11.112;2023-06-22T06:15:21;28.40;99.90
2721;DHT22;1368;49.484;11.112;2023-06-22T06:17:50;28.50;99.90
2721;DHT22;1368;49.484;11.112;2023-06-22T06:20:18;28.90;99.90
2721;DHT22;1368;49.484;11.112;2023-06-22T06:22:44;29.40;99.90
2721;DHT22;1368;49.484;11.112;2023-06-22T06:25:09;30.10;99.90
2721;DHT22;1368;49.484;11.112;2023-06-22T06:27:35;30.00;99.90
2721;DHT22;1368;49.484;11.112;2023-06-22T06:30:01;30.00;99.90
2721;DHT22;1368;49.484;11.112;2023-06-22T06:32:26;30.20;99.90
2721;DHT22;1368;49.484;11.112;2023-06-22T06:34:52;29.90;99.90
2721;DHT22;1368;49.484;11.112;2023-06-22T06:37:17;29.80;99.90
2721;DHT22;1368;49.484;11.112;2023-06-22T06:39:44;30.00;99.90
2721;DHT22;1368;49.484;11.112;2023-06-22T06:42:09;30.20;99.90
2721;DHT22;1368;49.484;11.112;2023-06-22T06:44:36;30.90;99.90
2721;DHT22;1368;49.484;11.112;2023-06-22T06:47:03;31.00;99.90
2721;DHT22;1368;49.484;11.112;2023-06-22T06:49:29;31.30;99.90
2721;DHT22;1368;49.484;11.112;2023-06-22T06:51:54;31.80;99.90
2721;DHT22;1368;49.484;11.112;2023-06-22T06:54:21;32.30;99.90
2721;DHT22;1368;49.484;11.112;2023-06-22T06:56:47;32.50;99.90
2721;DHT22;1368;49.484;11.112;2023-06-22T06:59:14;32.30;99.90
2721;DHT22;1368;49.484;11.112;2023-06-22T07:01:40;32.20;99.90
2721;DHT22;1368;49.484;11.112;2023-06-22T07:04:05;32.20;99.90
2721;DHT22;1368;49.484;11.112;2023-06-22T07:06:31;32.60;99.90
2721;DHT22;1368;49.484;11.112;2023-06-22T07:08:58;32.90;99.80
2721;DHT22;1368;49.484;11.112;2023-06-22T07:11:24;33.00;99.60
2721;DHT22;1368;49.484;11.112;2023-06-22T07:13:49;33.30;99.50
2721;DHT22;1368;49.484;11.112;2023-06-22T07:16:15;33.50;98.90
2721;DHT22;1368;49.484;11.112;2023-06-22T07:18:41;33.80;98.30
2721;DHT22;1368;49.484;11.112;2023-06-22T07:21:06;33.70;97.80
2721;DHT22;1368;49.484;11.112;2023-06-22T07:23:32;33.70;97.80
2721;DHT22;1368;49.484;11.112;2023-06-22T07:25:58;33.90;97.40
2721;DHT22;1368;49.484;11.112;2023-06-22T07:28:27;34.30;96.70
2721;DHT22;1368;49.484;11.112;2023-06-22T07:30:52;34.40;96.70
2721;DHT22;1368;49.484;11.112;2023-06-22T07:33:18;34.70;96.20
2721;DHT22;1368;49.484;11.112;2023-06-22T07:35:44;35.20;95.40
2721;DHT22;1368;49.484;11.112;2023-06-22T07:38:10;35.60;94.40
2721;DHT22;1368;49.484;11.112;2023-06-22T07:40:36;36.20;93.30
2721;DHT22;1368;49.484;11.112;2023-06-22T07:43:02;36.30;92.90
2721;DHT22;1368;49.484;11.112;2023-06-22T07:45:29;36.50;92.50
2721;DHT22;1368;49.484;11.112;2023-06-22T07:47:54;36.60;92.00
2721;DHT22;1368;49.484;11.112;2023-06-22T07:50:20;35.80;92.60
2721;DHT22;1368;49.484;11.112;2023-06-22T07:52:45;35.80;93.00
2721;DHT22;1368;49.484;11.112;2023-06-22T07:55:12;35.60;92.50
2721;DHT22;1368;49.484;11.112;2023-06-22T07:57:38;35.50;92.60
2721;DHT22;1368;49.484;11.112;2023-06-22T08:00:05;35.60;92.50
2721;DHT22;1368;49.484;11.112;2023-06-22T08:02:42;36.50;91.60
2721;DHT22;1368;49.484;11.112;2023-06-22T08:05:09;36.30;91.20
2721;DHT22;1368;49.484;11.112;2023-06-22T08:07:35;35.80;90.80
2721;DHT22;1368;49.484;11.112;2023-06-22T08:10:03;35.60;90.00
2721;DHT22;1368;49.484;11.112;2023-06-22T08:12:28;35.50;91.00
2721;DHT22;1368;49.484;11.112;2023-06-22T08:14:54;35.80;91.30
2721;DHT22;1368;49.484;11.112;2023-06-22T08:17:20;36.00;89.40
2721;DHT22;1368;49.484;11.112;2023-06-22T08:19:45;36.40;88.20
2721;DHT22;1368;49.484;11.112;2023-06-22T08:22:11;37.10;87.40
2721;DHT22;1368;49.484;11.112;2023-06-22T08:24:36;37.30;85.40
2721;DHT22;1368;49.484;11.112;2023-06-22T08:27:02;37.30;85.70
2721;DHT22;1368;49.484;11.112;2023-06-22T08:29:27;38.00;83.60
2721;DHT22;1368;49.484;11.112;2023-06-22T08:31:53;37.30;83.00
2721;DHT22;1368;49.484;11.112;2023-06-22T08:34:18;37.00;84.40
2721;DHT22;1368;49.484;11.112;2023-06-22T08:36:48;36.90;83.60
2721;DHT22;1368;49.484;11.112;2023-06-22T08:39:17;37.10;84.10
2721;DHT22;1368;49.484;11.112;2023-06-22T08:41:42;37.40;83.90
2721;DHT22;1368;49.484;11.112;2023-06-22T08:44:08;37.60;81.30
2721;DHT22;1368;49.484;11.112;2023-06-22T08:46:34;38.10;80.10
2721;DHT22;1368;49.484;11.112;2023-06-22T08:48:59;37.50;78.70
2721;DHT22;1368;49.484;11.112;2023-06-22T08:51:26;37.40;81.80
2721;DHT22;1368;49.484;11.112;2023-06-22T08:53:52;37.50;78.90
2721;DHT22;1368;49.484;11.112;2023-06-22T08:56:17;36.90;78.20
2721;DHT22;1368;49.484;11.112;2023-06-22T08:58:43;37.30;79.30
2721;DHT22;1368;49.484;11.112;2023-06-22T09:01:09;38.00;77.80
2721;DHT22;1368;49.484;11.112;2023-06-22T09:03:34;37.50;78.60
2721;DHT22;1368;49.484;11.112;2023-06-22T09:06:01;37.50;78.90
2721;DHT22;1368;49.484;11.112;2023-06-22T09:08:27;37.80;78.30
2721;DHT22;1368;49.484;11.112;2023-06-22T09:10:52;37.80;78.20
2721;DHT22;1368;49.484;11.112;2023-06-22T09:13:18;38.20;77.30
2721;DHT22;1368;49.484;11.112;2023-06-22T09:15:44;38.60;75.50
2721;DHT22;1368;49.484;11.112;2023-06-22T09:18:13;38.80;73.90
2721;DHT22;1368;49.484;11.112;2023-06-22T09:20:39;38.90;73.70
2721;DHT22;1368;49.484;11.112;2023-06-22T09:23:04;38.30;72.70
2721;DHT22;1368;49.484;11.112;2023-06-22T09:25:30;38.20;72.00
2721;DHT22;1368;49.484;11.112;2023-06-22T09:27:56;38.00;70.70
2721;DHT22;1368;49.484;11.112;2023-06-22T09:30:22;38.10;70.70
2721;DHT22;1368;49.484;11.112;2023-06-22T09:32:47;37.70;71.20
2721;DHT22;1368;49.484;11.112;2023-06-22T09:35:13;37.10;71.40
2721;DHT22;1368;49.484;11.112;2023-06-22T09:37:39;36.30;73.10
2721;DHT22;1368;49.484;11.112;2023-06-22T09:40:06;36.80;72.60
2721;DHT22;1368;49.484;11.112;2023-06-22T09:42:36;36.80;71.80
2721;DHT22;1368;49.484;11.112;2023-06-22T09:45:02;36.90;71.70
2721;DHT22;1368;49.484;11.112;2023-06-22T09:47:28;37.30;71.70
2721;DHT22;1368;49.484;11.112;2023-06-22T09:49:54;37.60;70.90
2721;DHT22;1368;49.484;11.112;2023-06-22T09:52:23;37.10;69.50
2721;DHT22;1368;49.484;11.112;2023-06-22T09:54:49;36.50;70.40
2721;DHT22;1368;49.484;11.112;2023-06-22T09:57:14;35.70;72.30
2721;DHT22;1368;49.484;11.112;2023-06-22T09:59:41;35.60;74.10
2721;DHT22;1368;49.484;11.112;2023-06-22T10:02:07;35.80;74.40
2721;DHT22;1368;49.484;11.112;2023-06-22T10:04:33;35.90;72.10
2721;DHT22;1368;49.484;11.112;2023-06-22T10:06:59;36.00;72.60
2721;DHT22;1368;49.484;11.112;2023-06-22T10:09:25;35.50;72.80
2721;DHT22;1368;49.484;11.112;2023-06-22T10:11:50;35.50;72.90
2721;DHT22;1368;49.484;11.112;2023-06-22T10:14:16;35.90;71.50
2721;DHT22;1368;49.484;11.112;2023-06-22T10:16:42;36.00;72.60
2721;DHT22;1368;49.484;11.112;2023-06-22T10:19:08;36.10;72.90
2721;DHT22;1368;49.484;11.112;2023-06-22T10:21:33;36.40;73.70
2721;DHT22;1368;49.484;11.112;2023-06-22T10:23:59;36.60;71.90
2721;DHT22;1368;49.484;11.112;2023-06-22T10:26:34;36.80;70.50
2721;DHT22;1368;49.484;11.112;2023-06-22T10:29:00;36.60;71.10
2721;DHT22;1368;49.484;11.112;2023-06-22T10:31:27;36.60;71.50
2721;DHT22;1368;49.484;11.112;2023-06-22T10:33:53;37.00;71.30
2721;DHT22;1368;49.484;11.112;2023-06-22T10:36:19;36.90;70.30
2721;DHT22;1368;49.484;11.112;2023-06-22T10:38:44;36.70;70.10
2721;DHT22;1368;49.484;11.112;2023-06-22T10:41:10;36.80;70.40
2721;DHT22;1368;49.484;11.112;2023-06-22T10:43:36;36.60;70.80
2721;DHT22;1368;49.484;11.112;2023-06-22T10:46:02;36.50;70.50
2721;DHT22;1368;49.484;11.112;2023-06-22T10:48:27;37.00;70.10
2721;DHT22;1368;49.484;11.112;2023-06-22T10:50:53;36.90;70.60
2721;DHT22;1368;49.484;11.112;2023-06-22T10:53:20;36.10;73.00
2721;DHT22;1368;49.484;11.112;2023-06-22T10:55:45;35.90;72.50
2721;DHT22;1368;49.484;11.112;2023-06-22T10:58:11;35.80;71.10
2721;DHT22;1368;49.484;11.112;2023-06-22T11:00:36;36.50;72.20
2721;DHT22;1368;49.484;11.112;2023-06-22T11:03:02;37.10;70.30
2721;DHT22;1368;49.484;11.112;2023-06-22T11:05:27;37.20;70.50
2721;DHT22;1368;49.484;11.112;2023-06-22T11:07:53;36.80;68.00
2721;DHT22;1368;49.484;11.112;2023-06-22T11:10:19;36.40;70.60
2721;DHT22;1368;49.484;11.112;2023-06-22T11:12:44;36.50;70.60
2721;DHT22;1368;49.484;11.112;2023-06-22T11:15:10;36.10;70.00
2721;DHT22;1368;49.484;11.112;2023-06-22T11:17:35;36.50;71.00
2721;DHT22;1368;49.484;11.112;2023-06-22T11:20:01;36.70;69.60
2721;DHT22;1368;49.484;11.112;2023-06-22T11:22:29;36.40;69.30
2721;DHT22;1368;49.484;11.112;2023-06-22T11:24:58;36.50;68.70
2721;DHT22;1368;49.484;11.112;2023-06-22T11:27:24;36.40;69.70
2721;DHT22;1368;49.484;11.112;2023-06-22T11:29:50;36.60;71.30
2721;DHT22;1368;49.484;11.112;2023-06-22T11:32:15;36.60;70.00
2721;DHT22;1368;49.484;11.112;2023-06-22T11:34:41;37.00;68.10
2721;DHT22;1368;49.484;11.112;2023-06-22T11:37:06;37.10;67.50
2721;DHT22;1368;49.484;11.112;2023-06-22T11:39:32;36.60;68.70
2721;DHT22;1368;49.484;11.112;2023-06-22T11:41:57;36.60;68.00
2721;DHT22;1368;49.484;11.112;2023-06-22T11:44:23;36.50;67.10
2721;DHT22;1368;49.484;11.112;2023-06-22T11:46:48;36.30;67.60
2721;DHT22;1368;49.484;11.112;2023-06-22T11:49:14;36.00;68.80
2721;DHT22;1368;49.484;11.112;2023-06-22T11:51:39;35.90;69.10
2721;DHT22;1368;49.484;11.112;2023-06-22T11:54:05;36.10;69.20
2721;DHT22;1368;49.484;11.112;2023-06-22T11:56:31;36.40;71.30
2721;DHT22;1368;49.484;11.112;2023-06-22T11:58:57;36.90;68.30
2721;DHT22;1368;49.484;11.112;2023-06-22T12:01:22;37.10;66.40
2721;DHT22;1368;49.484;11.112;2023-06-22T12:03:48;36.70;69.40
2721;DHT22;1368;49.484;11.112;2023-06-22T12:06:14;36.30;69.60
2721;DHT22;1368;49.484;11.112;2023-06-22T12:08:39;36.50;69.00
2721;DHT22;1368;49.484;11.112;2023-06-22T12:11:05;36.60;68.70
2721;DHT22;1368;49.484;11.112;2023-06-22T12:13:30;36.70;68.00
2721;DHT22;1368;49.484;11.112;2023-06-22T12:15:56;36.50;68.40
2721;DHT22;1368;49.484;11.112;2023-06-22T12:18:21;36.30;69.40
2721;DHT22;1368;49.484;11.112;2023-06-22T12:20:47;36.00;69.00
2721;DHT22;1368;49.484;11.112;2023-06-22T12:23:14;36.10;67.60
2721;DHT22;1368;49.484;11.112;2023-06-22T12:25:39;36.20;68.10
2721;DHT22;1368;49.484;11.112;2023-06-22T12:28:05;35.90;67.80
2721;DHT22;1368;49.484;11.112;2023-06-22T12:30:32;36.30;68.20
2721;DHT22;1368;49.484;11.112;2023-06-22T12:32:57;36.30;70.20
2721;DHT22;1368;49.484;11.112;2023-06-22T12:35:23;36.30;69.00
2721;DHT22;1368;49.484;11.112;2023-06-22T12:37:49;36.20;67.60
2721;DHT22;1368;49.484;11.112;2023-06-22T12:40:14;36.00;68.90
2721;DHT22;1368;49.484;11.112;2023-06-22T12:42:40;36.30;69.00
2721;DHT22;1368;49.484;11.112;2023-06-22T12:45:07;36.60;68.10
2721;DHT22;1368;49.484;11.112;2023-06-22T12:47:33;37.20;66.50
2721;DHT22;1368;49.484;11.112;2023-06-22T12:49:58;37.70;66.20
2721;DHT22;1368;49.484;11.112;2023-06-22T12:52:24;37.40;64.40
2721;DHT22;1368;49.484;11.112;2023-06-22T12:54:50;37.40;64.90
2721;DHT22;1368;49.484;11.112;2023-06-22T12:57:15;37.30;66.50
2721;DHT22;1368;49.484;11.112;2023-06-22T12:59:42;37.60;65.50
2721;DHT22;1368;49.484;11.112;2023-06-22T13:02:08;37.60;64.00
2721;DHT22;1368;49.484;11.112;2023-06-22T13:04:37;37.40;63.40
2721;DHT22;1368;49.484;11.112;2023-06-22T13:07:03;37.20;63.90
2721;DHT22;1368;49.484;11.112;2023-06-22T13:09:28;37.20;64.40
2721;DHT22;1368;49.484;11.112;2023-06-22T13:11:54;37.40;66.00
2721;DHT22;1368;49.484;11.112;2023-06-22T13:14:19;37.70;67.00
2721;DHT22;1368;49.484;11.112;2023-06-22T13:16:45;38.00;65.90
2721;DHT22;1368;49.484;11.112;2023-06-22T13:19:10;37.70;66.30
2721;DHT22;1368;49.484;11.112;2023-06-22T13:21:36;37.50;65.60
2721;DHT22;1368;49.484;11.112;2023-06-22T13:24:02;37.20;66.50
2721;DHT22;1368;49.484;11.112;2023-06-22T13:26:27;37.20;64.10
2721;DHT22;1368;49.484;11.112;2023-06-22T13:28:56;36.90;66.00
2721;DHT22;1368;49.484;11.112;2023-06-22T13:31:22;36.80;64.30
2721;DHT22;1368;49.484;11.112;2023-06-22T13:33:48;36.90;66.60
2721;DHT22;1368;49.484;11.112;2023-06-22T13:36:14;37.00;66.80
2721;DHT22;1368;49.484;11.112;2023-06-22T13:38:40;37.40;65.10
2721;DHT22;1368;49.484;11.112;2023-06-22T13:41:05;37.70;64.10
2721;DHT22;1368;49.484;11.112;2023-06-22T13:43:31;37.90;64.00
2721;DHT22;1368;49.484;11.112;2023-06-22T13:45:57;37.80;63.60
2721;DHT22;1368;49.484;11.112;2023-06-22T13:48:23;38.10;64.30
2721;DHT22;1368;49.484;11.112;2023-06-22T13:50:51;38.10;63.10
2721;DHT22;1368;49.484;11.112;2023-06-22T13:53:17;38.10;64.50
2721;DHT22;1368;49.484;11.112;2023-06-22T13:55:42;38.20;64.30
2721;DHT22;1368;49.484;11.112;2023-06-22T13:58:08;38.00;62.90
2721;DHT22;1368;49.484;11.112;2023-06-22T14:00:33;37.70;63.10
2721;DHT22;1368;49.484;11.112;2023-06-22T14:02:59;38.10;63.80
2721;DHT22;1368;49.484;11.112;2023-06-22T14:05:24;38.50;63.60
2721;DHT22;1368;49.484;11.112;2023-06-22T14:07:50;39.00;63.10
2721;DHT22;1368;49.484;11.112;2023-06-22T14:10:16;39.20;62.80
2721;DHT22;1368;49.484;11.112;2023-06-22T14:12:41;38.90;61.60
2721;DHT22;1368;49.484;11.112;2023-06-22T14:15:07;38.50;61.60
2721;DHT22;1368;49.484;11.112;2023-06-22T14:17:35;38.50;62.50
2721;DHT22;1368;49.484;11.112;2023-06-22T14:20:00;38.20;62.10
2721;DHT22;1368;49.484;11.112;2023-06-22T14:22:26;37.90;63.10
2721;DHT22;1368;49.484;11.112;2023-06-22T14:24:54;37.70;61.70
2721;DHT22;1368;49.484;11.112;2023-06-22T14:27:21;37.60;62.10
2721;DHT22;1368;49.484;11.112;2023-06-22T14:29:47;37.50;61.70
2721;DHT22;1368;49.484;11.112;2023-06-22T14:32:12;37.50;62.50
2721;DHT22;1368;49.484;11.112;2023-06-22T14:34:38;37.10;64.00
2721;DHT22;1368;49.484;11.112;2023-06-22T14:37:07;37.20;64.10
2721;DHT22;1368;49.484;11.112;2023-06-22T14:39:35;37.50;65.20
2721;DHT22;1368;49.484;11.112;2023-06-22T14:42:01;38.00;64.50
2721;DHT22;1368;49.484;11.112;2023-06-22T14:44:27;38.40;65.50
2721;DHT22;1368;49.484;11.112;2023-06-22T14:46:55;38.50;63.90
2721;DHT22;1368;49.484;11.112;2023-06-22T14:49:20;38.30;62.90
2721;DHT22;1368;49.484;11.112;2023-06-22T14:51:46;38.10;62.10
2721;DHT22;1368;49.484;11.112;2023-06-22T14:54:11;38.10;64.00
2721;DHT22;1368;49.484;11.112;2023-06-22T14:56:37;38.10;65.40
2721;DHT22;1368;49.484;11.112;2023-06-22T14:59:02;38.20;65.00
2721;DHT22;1368;49.484;11.112;2023-06-22T15:01:28;38.30;65.80
2721;DHT22;1368;49.484;11.112;2023-06-22T15:03:54;38.50;65.20
2721;DHT22;1368;49.484;11.112;2023-06-22T15:06:21;38.50;63.60
2721;DHT22;1368;49.484;11.112;2023-06-22T15:08:47;38.10;62.60
2721;DHT22;1368;49.484;11.112;2023-06-22T15:11:12;38.10;64.50
2721;DHT22;1368;49.484;11.112;2023-06-22T15:13:41;38.10;63.90
2721;DHT22;1368;49.484;11.112;2023-06-22T15:16:07;38.10;64.10
2721;DHT22;1368;49.484;11.112;2023-06-22T15:18:34;38.00;62.80
2721;DHT22;1368;49.484;11.112;2023-06-22T15:21:01;38.10;64.00
2721;DHT22;1368;49.484;11.112;2023-06-22T15:23:31;38.10;64.90
2721;DHT22;1368;49.484;11.112;2023-06-22T15:25:58;37.80;62.40
2721;DHT22;1368;49.484;11.112;2023-06-22T15:28:24;37.40;63.60
2721;DHT22;1368;49.484;11.112;2023-06-22T15:30:50;37.10;64.40
2721;DHT22;1368;49.484;11.112;2023-06-22T15:33:17;36.80;64.10
2721;DHT22;1368;49.484;11.112;2023-06-22T15:35:42;36.60;64.80
2721;DHT22;1368;49.484;11.112;2023-06-22T15:38:08;36.50;64.50
2721;DHT22;1368;49.484;11.112;2023-06-22T15:40:34;36.70;64.50
2721;DHT22;1368;49.484;11.112;2023-06-22T15:42:59;36.60;65.20
2721;DHT22;1368;49.484;11.112;2023-06-22T15:45:25;36.40;65.90
2721;DHT22;1368;49.484;11.112;2023-06-22T15:47:51;36.40;65.90